ADDS METAR Data INFO
IDs: Format: Raw Decoded Include TAF

Data at: 0008 UTC 24 Feb 2018

KFLG 232357Z 26004KT 1/4SM SN BKN008 OVC015 M06/M06 A2993 RMK AO2 SLP152 P0003 60039 T10561061 11044 21061 52005
KFLG 232352Z 24005KT 1/4SM +SN VV008 M06/M07 A2993 RMK AO2 P0003
KFLG 232337Z 24007KT 1/4SM SN FEW009 OVC013 M06/M07 A2993 RMK AO2 P0001 T10561072
KFLG 232311Z 25005KT 1/2SM SN VV010 M05/M07 A2992 RMK AO2 P0001 T10501067
KFLG 232257Z VRB03KT 1/4SM SN VV007 M06/M07 A2992 RMK AO2 SLP146 P0009 T10561072
KFLG 232157Z VRB04KT 1/4SM SN VV005 M06/M07 A2992 RMK AO2 SLP146 P0008 T10611072
KFLG 232057Z 29007G19KT 270V350 M1/4SM +SN VV005 M06/M06 A2991 RMK AO2 PK WND 22026/2005 SLP144 P0008 60019 T10561061 58006
KFLG 232028Z 21017G26KT 1/4SM +SN VV005 M06/M07 A2991 RMK AO2 PK WND 22026/2005 P0004 T10561067
KFLG 231957Z 23012KT M1/4SM +SN VV004 M06/M07 A2992 RMK AO2 SLP148 P0008 T10561067
KFLG 231952Z 23015G24KT 1/4SM +SN VV005 M05/M07 A2993 RMK AO2 P0008
KFLG 231926Z 23012G24KT M1/4SM +SN VV004 M05/M06 A2993 RMK AO2 P0004 T10501061
KFLG 231857Z 24015G29KT 1/4SM SN VV008 M05/M07 A2993 RMK AO2 PK WND 23029/1852 SLP149 P0003 T10501067
KFLG 231839Z 22017KT 1/4SM SN FEW010 BKN014 OVC027 M05/M07 A2994 RMK AO2 P0001 T10501072
KFLG 231830Z 22017G23KT 1 3/4SM -SN FEW010 BKN015 OVC029 M04/M07 A2994 RMK AO2 P0001 T10441067
KFLG 231825Z 21016G19KT 3/4SM -SN FEW010 OVC013 M04/M06 A2994 RMK AO2 P0001 T10441061
KFLG 231810Z 21012KT 1/4SM SN BKN014 BKN032 OVC044 M05/M06 A2995 RMK AO2 P0000 T10501061
KFLG 231802Z 23013G23KT 3/4SM -SN BKN022 BKN032 OVC045 M04/M08 A2995 RMK AO2 P0000 T10441078
KFLG 231757Z 23019G23KT 1 3/4SM -SN BKN032 BKN045 OVC055 M04/M08 A2994 RMK AO2 PK WND 22031/1700 SNE11B17 SLP149 P0000 60003 T10441083 11039 21056 53000
KFLG 231754Z 23018G23KT 2SM -SN FEW020 BKN032 OVC045 M04/M08 A2994 RMK AO2 PK WND 22031/1700 SNE11B17 P0000
KFLG 231738Z 22022G26KT 6SM -SN FEW022 BKN030 OVC055 M04/M08 A2994 RMK AO2 PK WND 22031/1700 SNE11B17 P0000 T10441078
KFLG 231732Z 22017KT 2SM -SN FEW020 BKN028 OVC055 M04/M08 A2994 RMK AO2 PK WND 22031/1700 SNE11B17 P0000 T10441078
KFLG 231722Z 21015G27KT 1 1/2SM -SN FEW020 BKN030 OVC055 M04/M08 A2994 RMK AO2 PK WND 22031/1700 VIS 1/2V5 SNE11B17 P0000 T10441078
KFLG 231711Z 22020G27KT 7SM FEW015 BKN037 OVC060 M04/M08 A2994 RMK AO2 PK WND 22031/1700 SNE11 P0000 T10441083
KFLG 231657Z 21020G24KT 2 1/2SM -SN FEW010 BKN015 OVC021 M04/M07 A2994 RMK AO2 SLP147 P0002 T10391067
KFLG 231641Z 24008KT 1/2SM SN OVC011 M05/M07 A2994 RMK AO2 P0002 T10501067
KFLG 231636Z 23012KT 1/4SM SN OVC010 M05/M07 A2994 RMK AO2 P0001 T10501067
KFLG 231604Z 23014KT 1/2SM SN SCT008 OVC012 M05/M07 A2994 RMK AO2 P0000 T10501067
KFLG 231557Z 22015G23KT 1/2SM SN VV011 M05/M07 A2994 RMK AO2 SLP149 P0001 T10501067
KFLG 231552Z 21013KT 1/4SM SN VV012 M06/M07 A2994 RMK AO2 P0001
KFLG 231546Z 22015KT 1/2SM SN BKN013 OVC026 M05/M07 A2994 RMK AO2 P0001 T10501067
KFLG 231539Z 21013KT 3/4SM -SN BR FEW009 OVC015 M05/M07 A2994 RMK AO2 P0000 T10501067
KFLG 231507Z 21016KT 3/4SM -SN BR OVC017 M05/M07 A2993 RMK AO2 P0000 T10501072
KFLG 231457Z 22014KT 1SM -SN BR OVC017 M05/M07 A2994 RMK AO2 PK WND 22026/1437 SLP147 P0000 60000 T10501072 53001
KFLG 231438Z 22020G26KT 1 1/4SM -SN BR OVC016 M05/M07 A2994 RMK AO2 PK WND 22026/1437 P0000 T10501072
KFLG 231425Z 23017KT 1 3/4SM -SN BR BKN014 OVC019 M05/M07 A2994 RMK AO2 VIS 1 1/4V3 P0000 T10501072
KFLG 231405Z 22017G24KT 2 1/2SM -SN BR OVC013 M05/M07 A2993 RMK AO2 P0000 T10501072
KFLG 231357Z 22016G27KT 3SM -SN BR OVC013 M05/M07 A2993 RMK AO2 PK WND 22027/1350 SLP143 P0000 T10501072
KFLG 231324Z AUTO 22017G23KT 2 1/2SM -SN BR BKN014 OVC025 M05/M07 A2993 RMK AO2 PK WND 22026/1304 P0000 T10501072
KFLG 231257Z AUTO 23013G21KT 4SM -SN BKN014 BKN019 OVC041 M04/M07 A2993 RMK AO2 SLP142 P0000 T10441072
KFLG 231253Z AUTO 23015G21KT 4SM -SN BKN014 BKN019 OVC041 M04/M07 A2993 RMK AO2 P0000
KFLG 231157Z AUTO 21015G22KT 6SM -SN BKN021 BKN027 OVC034 M04/M08 A2994 RMK AO2 SNB31 SLP140 P0000 60000 T10441083 11039 21050 58015
KFLG 231057Z AUTO 22013G21KT 10SM FEW027 OVC034 M04/M09 A2995 RMK AO2 SLP141 T10441094
KFLG 231031Z AUTO 21016G22KT 10SM SCT027 OVC036 M04/M09 A2996 RMK AO2 T10441094
KFLG 230957Z AUTO 23014KT 10SM OVC028 M04/M09 A2998 RMK AO2 SLP153 T10441094
KFLG 230916Z AUTO 23007KT 10SM BKN029 M05/M09 A2999 RMK AO2 T10501094
KFLG 230857Z AUTO 23012KT 10SM SCT027 M05/M09 A2999 RMK AO2 SLP155 60000 T10501094 56008
KFLG 230817Z AUTO 23014G22KT 10SM SCT025 BKN035 M05/M09 A3000 RMK AO2 T10501094
KFLG 230757Z AUTO 24011G20KT 10SM BKN025 BKN031 M05/M09 A3000 RMK AO2 SLP162 T10501089
KFLG 230744Z AUTO 23014G20KT 10SM BKN027 OVC034 M04/M09 A3000 RMK AO2 T10441089
KFLG 230657Z AUTO 21016G24KT 10SM FEW025 BKN036 M04/M09 A3001 RMK AO2 PK WND 22026/0623 SNE03 SLP165 P0000 T10391089 400061133
KFLG 230557Z AUTO 21017G25KT 9SM -SN FEW026 OVC043 M04/M08 A3002 RMK AO2 PK WND 23030/0513 SLP173 P0000 60000 T10391083 11011 21039 50003
KFLG 230457Z AUTO 22015G24KT 9SM -SN FEW025 OVC043 M04/M08 A3002 RMK AO2 PK WND 22033/0411 SLP178 P0000 T10391083
KFLG 230357Z AUTO 21022G31KT 7SM -SN FEW029 OVC041 M03/M08 A3002 RMK AO2 PK WND 21034/0342 SNB32 SLP175 P0000 T10331083
KFLG 230257Z AUTO 21018G25KT 10SM SCT029 BKN038 OVC045 M03/M09 A3001 RMK AO2 PK WND 22026/0212 SLP180 T10331089 53011
KFLG 230157Z AUTO 22014G25KT 10SM SCT032 M03/M11 A2999 RMK AO2 SLP188 T10331106
KFLG 230057Z 20015G25KT 10SM CLR M03/M14 A2998 RMK AO2 PK WND 22034/0012 SLP183 T10281139
KFLG 222357Z 21023G31KT 10SM CLR M01/M14 A2997 RMK AO2 PK WND 22034/2340 SLP172 T10111139 10006 21028 58006
KFLG 222257Z 21017G27KT 10SM CLR 00/M13 A2998 RMK AO2 PK WND 22033/2228 SLP174 T00001133
KFLG 222157Z 21021G29KT 10SM CLR 00/M13 A2998 RMK AO2 PK WND 22032/2109 SLP170 T00001133
KFLG 222057Z 24019G26KT 10SM CLR 00/M13 A2999 RMK AO2 PK WND 21030/2002 SLP170 T00001133 58016
KFLG 221957Z 22019G23KT 10SM CLR M01/M13 A3003 RMK AO2 PK WND 22029/1901 SLP186 T10111133
KFLG 221857Z 20018G28KT 10SM CLR M02/M14 A3004 RMK AO2 PK WND 21028/1854 SLP185 T10171139
KFLG 221757Z 26014G23KT 10SM CLR M03/M16 A3005 RMK AO2 SLP188 T10281156 11022 21133 51010
KFLG 221657Z 26012G20KT 240V300 10SM CLR M04/M16 A3005 RMK AO2 SLP186 T10391156
KFLG 221557Z 23014KT 10SM CLR M05/M16 A3003 RMK AO2 SLP185 T10501156
KFLG 221457Z 24004KT 10SM CLR M07/M16 A3002 RMK AO2 SLP181 T10721156 53012
KFLG 221357Z AUTO 25005KT 10SM CLR M12/M16 A3000 RMK AO2 SLP189 T11171161
KFLG 221257Z AUTO 22003KT 10SM CLR M12/M16 A2998 RMK AO2 SLP179 T11221161